Архив погоды в Урюпинске

Метеограмма Урюпинск
Среда, 25 Апреля
Время местн. Темп Ветер Видим Явления Облачность нижн/средн/верх Атм. давл. Влжн Точка росы ВНГО R Сост. почвы Tg s
Напр Скр Прв ур.ст ур.м изм
18:00 +17° Ю,Ю-З 4 - 20 км - облачно 749 758 -0.8 38% +2.5° 1.5 км 0 - - -
15:00 +18.2° Ю,Ю-З 5 10 20 км - облачно 750 759 -0.7 29% -0.3° 1.5 км - - - -
12:00 +16.5° Ю-З 3 - 20 км - облачно 750 760 -0.8 33% 1.5 км - - - -
09:00 +10.6° Ю,Ю-З 3 - 20 км - облачно 751 761 +0.7 56% +2.2° более 2.5 км - - - -
06:00 +6.7° Ю 4 - 20 км - облачно 750 760 -0.1 53% -2.2° - - Сухая (без трещин) - -
03:00 +6.8° Ю 2 - 10 км - облачно 750 760 -0.7 48% -3.3° более 2.5 км - - - -
00:00 +7.2° Ю,Ю-В 3 - 10 км - облачно 751 761 -0.5 42% -4.7° более 2.5 км - - - -
Вторник, 24 Апреля
Время местн. Темп Ветер Видим Явления Облачность нижн/средн/верх Атм. давл. Влжн Точка росы ВНГО R Сост. почвы Tg s
Напр Скр Прв ур.ст ур.м изм
21:00 +8.4° Ю 2 - 10 км - облачно 752 761 +0.1 37% -5.3° более 2.5 км - - - -
18:00 +12° З 4 - 20 км - облачно 751 761 -0.6 25% -7.5° - - - - -
15:00 +13° З 5 - 20 км - переменная облачность 752 762 -0.6 24% -7.2° 1.5 км - - - -
12:00 +12° З 7 11 20 км - переменная облачность 753 762 -0.2 23% -8.4° 1.5 км - - - -
09:00 +7.6° З 4 - 20 км - ясно 753 763 +0.4 41% -4.8° более 2.5 км - - - -
06:00 +0.3° Ю-З 2 - 20 км - облачно 752 762 +0.8 68% -4.9° более 2.5 км - Замерзшая - -
03:00 -0.6° З,Ю-З 3 - 10 км - облачно 752 762 +0.5 67% -6° более 2.5 км - - - -
00:00 +1° З 3 - 10 км - облачно 751 761 +0.6 56% -6.8° более 2.5 км - - - -
Понедельник, 23 Апреля
Время местн. Темп Ветер Видим Явления Облачность нижн/средн/верх Атм. давл. Влжн Точка росы ВНГО R Сост. почвы Tg s
Напр Скр Прв ур.ст ур.м изм
21:00 +2.9° З 3 - 10 км - облачно 751 761 +1.4 44% -8.2° 1 км - - - -
18:00 +6.6° З,С-З 6 - 20 км - облачно 749 759 +0.5 30% -9.5° 1 км - - - -
15:00 +6.9° З,С-З 7 11 20 км - облачно 749 759 +0.4 32% -8.6° 1 км - - - -
12:00 +4.6° З,С-З 4 11 20 км - облачно 748 758 +1.1 43% -7° 1 км - - - -
09:00 +4° З,С-З 6 - 20 км - облачно 747 757 +1.1 48% -6° 1 км - - - -
06:00 +1.8° З,С-З 3 - 20 км - переменная облачность 746 756 +1.1 71% -2.9° более 2.5 км 0.3 Влажная (без луж) +2° -
03:00 +2.9° С-З 3 - 10 км - облачно 745 755 +1.1 70% -2.1° более 2.5 км - - - -
00:00 +5.4° С-З 3 10 10 км облака развиваются {ливневые осадки} облачно 744 754 +1.1 82% +2.6° 600 м - - - -
Воскресенье, 22 Апреля
Время местн. Темп Ветер Видим Явления Облачность нижн/средн/верх Атм. давл. Влжн Точка росы ВНГО R Сост. почвы Tg s
Напр Скр Прв ур.ст ур.м изм
21:00 +6.8° З 3 - 10 км облака рассеиваются {ливневые осадки} переменная облачность 743 752 +1 75% +2.7° - - - - -
18:00 +7.7° З 5 - 20 км ливневый дождь облачно 742 751 +1.3 75% +3.6° 600 м - - - -
15:00 +13.4° З,С-З 9 13 20 км - облачно 741 750 +0.5 35% -1.6° 600 м - - - -